createdAt,value
2018-12-25T00:02:04.500Z,97848.00
2018-12-25T00:07:16.445Z,97857.00
2018-12-25T00:12:22.660Z,97852.00
2018-12-25T00:17:25.500Z,97845.00
2018-12-25T00:22:32.488Z,97840.00
2018-12-25T00:27:39.337Z,97827.00
2018-12-25T00:38:24.983Z,97824.00
2018-12-25T00:43:33.487Z,97813.00
2018-12-25T00:48:37.081Z,97813.00
2018-12-25T00:53:42.847Z,97816.00
2018-12-25T00:58:46.689Z,97826.00
2018-12-25T01:03:53.503Z,97813.00
2018-12-25T01:08:57.024Z,97807.00
2018-12-25T01:14:01.493Z,97813.00
2018-12-25T01:19:04.194Z,97814.00
2018-12-25T01:24:07.502Z,97839.00
2018-12-25T01:29:11.375Z,97865.00
2018-12-25T01:34:17.987Z,97883.00
2018-12-25T01:39:21.447Z,97890.00
2018-12-25T01:44:24.303Z,97881.00
2018-12-25T01:49:31.698Z,97883.00
2018-12-25T01:54:31.586Z,97868.00
2018-12-25T01:59:34.473Z,97867.00
2018-12-25T02:04:55.622Z,97852.00
2018-12-25T02:10:01.575Z,97863.00
2018-12-25T02:15:05.063Z,97862.00
2018-12-25T02:20:08.507Z,97855.00
2018-12-25T02:25:21.142Z,97856.00
2018-12-25T02:30:24.276Z,97866.00
2018-12-25T02:35:28.972Z,97852.00
2018-12-25T02:40:32.512Z,97857.00
2018-12-25T02:45:44.500Z,97838.00
2018-12-25T02:50:47.200Z,97839.00
2018-12-25T02:55:49.949Z,97832.00
2018-12-25T03:00:53.845Z,97836.00
2018-12-25T03:05:57.647Z,97836.00
2018-12-25T03:11:00.620Z,97833.00
2018-12-25T03:16:05.291Z,97832.00
2018-12-25T03:21:09.019Z,97832.00
2018-12-25T03:26:30.076Z,97844.00
2018-12-25T03:31:33.581Z,97832.00
2018-12-25T03:36:36.354Z,97823.00
2018-12-25T03:41:39.379Z,97822.00
2018-12-25T03:46:52.012Z,97823.00
2018-12-25T03:51:54.797Z,97821.00
2018-12-25T03:56:57.648Z,97834.00
2018-12-25T04:02:01.075Z,97816.00
2018-12-25T04:07:06.901Z,97812.00
2018-12-25T04:12:10.580Z,97807.00
2018-12-25T04:17:13.253Z,97813.00
2018-12-25T04:22:16.430Z,97810.00
2018-12-25T04:27:21.056Z,97809.00
2018-12-25T04:32:24.541Z,97818.00
2018-12-25T04:37:27.455Z,97829.00
2018-12-25T04:42:30.161Z,97823.00
2018-12-25T04:47:41.935Z,97815.00
2018-12-25T04:52:45.716Z,97822.00
2018-12-25T04:57:49.383Z,97813.00
2018-12-25T05:02:52.599Z,97824.00
2018-12-25T05:07:55.433Z,97808.00
2018-12-25T05:12:58.199Z,97809.00
2018-12-25T05:18:02.788Z,97818.00
2018-12-25T05:23:06.971Z,97817.00
2018-12-25T05:28:09.663Z,97822.00
2018-12-25T05:33:12.487Z,97824.00
2018-12-25T05:38:18.240Z,97828.00
2018-12-25T05:43:21.072Z,97828.00
2018-12-25T05:48:24.703Z,97822.00
2018-12-25T05:53:29.624Z,97829.00
2018-12-25T05:58:32.291Z,97835.00
2018-12-25T06:03:35.528Z,97825.00
2018-12-25T06:08:39.162Z,97834.00
2018-12-25T06:13:42.655Z,97835.00
2018-12-25T06:18:46.352Z,97830.00
2018-12-25T06:23:49.294Z,97837.00
2018-12-25T06:28:52.991Z,97837.00
2018-12-25T06:33:56.612Z,97843.00
2018-12-25T06:39:00.189Z,97846.00
2018-12-25T06:44:03.727Z,97858.00
2018-12-25T06:49:07.176Z,97852.00
2018-12-25T06:54:10.100Z,97853.00
2018-12-25T06:59:13.668Z,97844.00
2018-12-25T07:04:17.226Z,97846.00
2018-12-25T07:09:22.947Z,97848.00
2018-12-25T07:14:30.968Z,97852.00
2018-12-25T07:19:34.175Z,97839.00
2018-12-25T07:24:37.362Z,97830.00
2018-12-25T07:29:43.245Z,97833.00
2018-12-25T07:34:47.468Z,97846.00
2018-12-25T07:39:50.813Z,97832.00
2018-12-25T07:44:58.514Z,97849.00
2018-12-25T07:50:05.559Z,97837.00
2018-12-25T07:55:10.172Z,97864.00
2018-12-25T08:00:22.308Z,97866.00
2018-12-25T08:05:34.727Z,97865.00
2018-12-25T08:10:38.306Z,97847.00
2018-12-25T08:15:43.120Z,97853.00
2018-12-25T08:21:03.838Z,97846.00
2018-12-25T08:26:06.675Z,97852.00
2018-12-25T08:31:12.697Z,97850.00
2018-12-25T08:36:16.407Z,97855.00
2018-12-25T08:41:37.759Z,97849.00
2018-12-25T08:46:41.242Z,97855.00
2018-12-25T08:51:44.185Z,97855.00
2018-12-25T08:56:48.106Z,97859.00
2018-12-25T09:01:52.824Z,97856.00
2018-12-25T09:06:56.243Z,97860.00
2018-12-25T09:11:59.051Z,97866.00
2018-12-25T09:17:05.687Z,97878.00
2018-12-25T09:22:09.184Z,97881.00
2018-12-25T09:27:12.804Z,97866.00
2018-12-25T09:32:16.061Z,97859.00
2018-12-25T09:37:20.776Z,97860.00
2018-12-25T09:42:24.344Z,97849.00
2018-12-25T09:47:32.405Z,97833.00
2018-12-25T09:52:35.212Z,97848.00
2018-12-25T09:57:42.059Z,97861.00
2018-12-25T10:02:45.219Z,97853.00
2018-12-25T10:07:52.720Z,97837.00
2018-12-25T10:12:56.286Z,97831.00
2018-12-25T10:18:02.417Z,97820.00
2018-12-25T10:23:06.044Z,97833.00
2018-12-25T10:28:08.870Z,97837.00
2018-12-25T10:33:12.259Z,97834.00
2018-12-25T10:38:15.844Z,97798.00
2018-12-25T10:43:19.143Z,97805.00
2018-12-25T10:48:40.571Z,97806.00
2018-12-25T10:53:51.522Z,97796.00
2018-12-25T10:58:55.420Z,97803.00
2018-12-25T11:03:58.293Z,97791.00
2018-12-25T11:09:08.263Z,97772.00
2018-12-25T11:14:11.576Z,97783.00
2018-12-25T11:19:15.416Z,97760.00
2018-12-25T11:24:24.417Z,97783.00
2018-12-25T11:29:28.447Z,97799.00
2018-12-25T11:34:31.740Z,97829.00
2018-12-25T11:39:37.558Z,97834.00
2018-12-25T11:44:43.369Z,97831.00
2018-12-25T11:49:46.516Z,97846.00
2018-12-25T11:54:50.416Z,97844.00
2018-12-25T11:59:58.018Z,97843.00
2018-12-25T12:05:04.445Z,97857.00
2018-12-25T12:10:08.173Z,97865.00
2018-12-25T12:15:11.795Z,97871.00
2018-12-25T12:20:18.392Z,97874.00
2018-12-25T12:25:21.792Z,97862.00
2018-12-25T12:30:24.852Z,97865.00
2018-12-25T12:35:31.328Z,97862.00
2018-12-25T12:40:34.135Z,97861.00
2018-12-25T12:45:41.810Z,97856.00
2018-12-25T12:50:53.650Z,97836.00
2018-12-25T12:55:57.374Z,97843.00
2018-12-25T13:01:00.195Z,97844.00
2018-12-25T13:06:03.051Z,97843.00
2018-12-25T13:11:07.928Z,97865.00
2018-12-25T13:16:11.397Z,97858.00
2018-12-25T13:21:18.330Z,97865.00
2018-12-25T13:26:24.275Z,97855.00
2018-12-25T13:31:27.205Z,97854.00
2018-12-25T13:36:30.189Z,97855.00
2018-12-25T13:41:33.178Z,97866.00
2018-12-25T13:46:37.369Z,97879.00
2018-12-25T13:51:41.285Z,97870.00
2018-12-25T13:56:49.209Z,97886.00
2018-12-25T14:01:53.324Z,97881.00
2018-12-25T14:07:00.303Z,97878.00
2018-12-25T14:12:07.544Z,97877.00
2018-12-25T14:17:14.026Z,97889.00
2018-12-25T14:22:36.193Z,97901.00
2018-12-25T14:27:39.305Z,97899.00
2018-12-25T14:32:43.212Z,97909.00
2018-12-25T14:37:47.291Z,97902.00
2018-12-25T14:42:54.501Z,97902.00
2018-12-25T14:48:01.688Z,97914.00
2018-12-25T14:53:08.587Z,97933.00
2018-12-25T14:58:11.532Z,97921.00
2018-12-25T15:03:14.536Z,97926.00
2018-12-25T15:08:17.632Z,97935.00
2018-12-25T15:13:25.872Z,97933.00
2018-12-25T15:18:30.181Z,97931.00
2018-12-25T15:23:42.410Z,97930.00
2018-12-25T15:28:46.225Z,97956.00
2018-12-25T15:33:50.997Z,97953.00
2018-12-25T15:38:54.932Z,97948.00
2018-12-25T15:43:58.909Z,97936.00
2018-12-25T15:49:06.749Z,97939.00
2018-12-25T15:54:19.791Z,97945.00
2018-12-25T15:59:23.238Z,97946.00
2018-12-25T16:04:27.874Z,97944.00
2018-12-25T16:09:32.603Z,97950.00
2018-12-25T16:14:36.989Z,97950.00
2018-12-25T16:19:44.090Z,97951.00
2018-12-25T16:24:50.856Z,97943.00
2018-12-25T16:29:54.661Z,97943.00
2018-12-25T16:35:07.002Z,97946.00
2018-12-25T16:40:13.328Z,97940.00
2018-12-25T16:45:19.512Z,97800.00
2018-12-25T16:50:27.897Z,97930.00
2018-12-25T16:55:33.652Z,97925.00
2018-12-25T17:00:37.772Z,97921.00
2018-12-25T17:05:44.892Z,97924.00
2018-12-25T17:10:58.467Z,97930.00
2018-12-25T17:16:02.382Z,97930.00
2018-12-25T17:21:05.179Z,97927.00
2018-12-25T17:26:08.998Z,97904.00
2018-12-25T17:31:13.509Z,97899.00
2018-12-25T17:36:21.168Z,97896.00
2018-12-25T17:41:24.383Z,97900.00
2018-12-25T17:46:27.496Z,97904.00
2018-12-25T17:51:30.301Z,97907.00
2018-12-25T17:56:37.684Z,97904.00
2018-12-25T18:01:39.933Z,97908.00
2018-12-25T18:06:44.602Z,97911.00
2018-12-25T18:11:50.743Z,97904.00
2018-12-25T18:16:53.560Z,97904.00
2018-12-25T18:21:56.460Z,97901.00
2018-12-25T18:26:59.505Z,97903.00
2018-12-25T18:32:05.604Z,97911.00
2018-12-25T18:37:12.515Z,97908.00
2018-12-25T18:42:23.206Z,97906.00
2018-12-25T18:47:22.639Z,97901.00
2018-12-25T18:52:26.109Z,97888.00
2018-12-25T18:57:32.687Z,97891.00
2018-12-25T19:02:36.016Z,97900.00
2018-12-25T19:07:57.491Z,97897.00
2018-12-25T19:13:10.060Z,97902.00
2018-12-25T19:18:31.054Z,97893.00
2018-12-25T19:23:46.880Z,97908.00
2018-12-25T19:28:52.816Z,97912.00
2018-12-25T19:33:58.641Z,97908.00
2018-12-25T19:39:01.619Z,97912.00
2018-12-25T19:44:06.112Z,97912.00
2018-12-25T19:49:18.199Z,97906.00
2018-12-25T19:54:21.563Z,97918.00
2018-12-25T19:59:25.077Z,97907.00
2018-12-25T20:04:36.786Z,97920.00
2018-12-25T20:10:07.849Z,97908.00
2018-12-25T20:15:44.171Z,97898.00
2018-12-25T20:21:37.491Z,97896.00
2018-12-25T20:27:11.759Z,97884.00
2018-12-25T20:33:15.499Z,97862.00
2018-12-25T20:39:11.127Z,97874.00
2018-12-25T20:44:49.489Z,97870.00
2018-12-25T20:50:49.191Z,97866.00
2018-12-25T20:56:49.397Z,97862.00
2018-12-25T21:02:52.159Z,97862.00
2018-12-25T21:08:36.618Z,97863.00
2018-12-25T21:14:32.738Z,97847.00
2018-12-25T21:20:26.535Z,97852.00
2018-12-25T21:26:24.354Z,97844.00
2018-12-25T21:31:32.357Z,97850.00
2018-12-25T21:36:37.924Z,97844.00
2018-12-25T21:41:42.493Z,97844.00
2018-12-25T21:46:48.066Z,97844.00
2018-12-25T21:51:53.878Z,97840.00
2018-12-25T21:56:57.207Z,97844.00
2018-12-25T22:02:02.325Z,97852.00
2018-12-25T22:07:05.400Z,97867.00
2018-12-25T22:12:19.571Z,97844.00
2018-12-25T22:17:25.900Z,97846.00
2018-12-25T22:22:32.856Z,97855.00
2018-12-25T22:27:38.125Z,97850.00
2018-12-25T22:32:46.034Z,97851.00
2018-12-25T22:37:50.203Z,97853.00
2018-12-25T22:42:55.899Z,97851.00
2018-12-25T22:48:00.744Z,97844.00
2018-12-25T22:53:06.972Z,97832.00
2018-12-25T22:58:12.807Z,97831.00
2018-12-25T23:03:27.532Z,97818.00
2018-12-25T23:08:32.737Z,97813.00
2018-12-25T23:13:39.524Z,97812.00
2018-12-25T23:18:42.598Z,97814.00
2018-12-25T23:23:49.275Z,97815.00
2018-12-25T23:28:52.356Z,97809.00
2018-12-25T23:33:56.153Z,97798.00
2018-12-25T23:38:59.042Z,97808.00
2018-12-25T23:44:05.052Z,97823.00
2018-12-25T23:49:08.703Z,97828.00
2018-12-25T23:54:29.653Z,97816.00
2018-12-25T23:59:42.954Z,97813.00
